sensor_id;sensor_type;location;lat;lon;timestamp;pressure;altitude;pressure_sealevel;temperature;humidity
61528;BME280;47395;42.032;-8.634;2023-02-13T00:01:20;102104.50;;;11.73;50.62
61528;BME280;47395;42.032;-8.634;2023-02-13T00:03:21;102116.00;;;11.70;49.84
61528;BME280;47395;42.032;-8.634;2023-02-13T00:05:22;102120.56;;;11.65;49.16
61528;BME280;47395;42.032;-8.634;2023-02-13T00:07:22;102115.09;;;11.71;49.74
61528;BME280;47395;42.032;-8.634;2023-02-13T00:09:23;102126.53;;;11.72;50.21
61528;BME280;47395;42.032;-8.634;2023-02-13T00:11:24;102114.28;;;11.69;50.83
61528;BME280;47395;42.032;-8.634;2023-02-13T00:13:24;102124.84;;;11.69;50.70
61528;BME280;47395;42.032;-8.634;2023-02-13T00:15:25;102120.28;;;11.74;50.83
61528;BME280;47395;42.032;-8.634;2023-02-13T00:17:26;102118.78;;;11.66;51.64
61528;BME280;47395;42.032;-8.634;2023-02-13T00:19:27;102121.19;;;11.73;51.78
61528;BME280;47395;42.032;-8.634;2023-02-13T00:21:27;102128.91;;;11.80;52.05
61528;BME280;47395;42.032;-8.634;2023-02-13T00:23:28;102132.56;;;11.75;51.94
61528;BME280;47395;42.032;-8.634;2023-02-13T00:25:29;102134.53;;;11.69;51.33
61528;BME280;47395;42.032;-8.634;2023-02-13T00:27:30;102127.53;;;11.68;51.66
61528;BME280;47395;42.032;-8.634;2023-02-13T00:29:31;102125.91;;;11.64;51.70
61528;BME280;47395;42.032;-8.634;2023-02-13T00:31:31;102124.31;;;11.58;51.69
61528;BME280;47395;42.032;-8.634;2023-02-13T00:33:32;102137.47;;;11.59;51.57
61528;BME280;47395;42.032;-8.634;2023-02-13T00:35:33;102132.25;;;11.56;51.23
61528;BME280;47395;42.032;-8.634;2023-02-13T00:37:34;102134.09;;;11.54;51.43
61528;BME280;47395;42.032;-8.634;2023-02-13T00:39:34;102134.00;;;11.57;51.91
61528;BME280;47395;42.032;-8.634;2023-02-13T00:41:35;102128.91;;;11.51;52.05
61528;BME280;47395;42.032;-8.634;2023-02-13T00:43:36;102131.59;;;11.49;52.53
61528;BME280;47395;42.032;-8.634;2023-02-13T00:45:37;102130.88;;;11.44;52.61
61528;BME280;47395;42.032;-8.634;2023-02-13T00:47:37;102130.22;;;11.36;51.46
61528;BME280;47395;42.032;-8.634;2023-02-13T00:49:42;102132.13;;;11.31;51.23
61528;BME280;47395;42.032;-8.634;2023-02-13T00:51:43;102134.09;;;11.24;51.12
61528;BME280;47395;42.032;-8.634;2023-02-13T00:53:43;102132.56;;;11.15;51.58
61528;BME280;47395;42.032;-8.634;2023-02-13T00:55:44;102134.44;;;11.12;51.92
61528;BME280;47395;42.032;-8.634;2023-02-13T00:57:46;102135.34;;;11.10;52.12
61528;BME280;47395;42.032;-8.634;2023-02-13T00:59:47;102132.00;;;11.05;51.63
61528;BME280;47395;42.032;-8.634;2023-02-13T01:01:48;102130.16;;;11.07;51.91
61528;BME280;47395;42.032;-8.634;2023-02-13T01:03:48;102138.16;;;11.04;52.15
61528;BME280;47395;42.032;-8.634;2023-02-13T01:05:49;102132.13;;;10.99;52.43
61528;BME280;47395;42.032;-8.634;2023-02-13T01:07:50;102133.94;;;10.99;52.86
61528;BME280;47395;42.032;-8.634;2023-02-13T01:09:51;102127.78;;;10.98;53.48
61528;BME280;47395;42.032;-8.634;2023-02-13T01:11:53;102132.19;;;10.97;53.91
61528;BME280;47395;42.032;-8.634;2023-02-13T01:13:53;102133.09;;;10.96;54.18
61528;BME280;47395;42.032;-8.634;2023-02-13T01:15:54;102125.31;;;10.92;54.33
61528;BME280;47395;42.032;-8.634;2023-02-13T01:17:55;102120.09;;;10.90;53.86
61528;BME280;47395;42.032;-8.634;2023-02-13T01:19:59;102121.88;;;10.88;54.31
61528;BME280;47395;42.032;-8.634;2023-02-13T01:22:00;102125.44;;;10.87;54.33
61528;BME280;47395;42.032;-8.634;2023-02-13T01:24:02;102121.13;;;10.84;54.58
61528;BME280;47395;42.032;-8.634;2023-02-13T01:26:03;102126.47;;;10.81;54.79
61528;BME280;47395;42.032;-8.634;2023-02-13T01:28:04;102133.78;;;10.72;53.91
61528;BME280;47395;42.032;-8.634;2023-02-13T01:30:05;102138.34;;;10.65;54.67
61528;BME280;47395;42.032;-8.634;2023-02-13T01:32:10;102134.88;;;10.63;54.82
61528;BME280;47395;42.032;-8.634;2023-02-13T01:34:11;102129.78;;;10.56;55.14
61528;BME280;47395;42.032;-8.634;2023-02-13T01:36:14;102136.88;;;10.53;55.29
61528;BME280;47395;42.032;-8.634;2023-02-13T01:38:15;102129.19;;;10.45;55.34
61528;BME280;47395;42.032;-8.634;2023-02-13T01:40:15;102119.63;;;10.39;55.75
61528;BME280;47395;42.032;-8.634;2023-02-13T01:42:20;102125.84;;;10.37;55.76
61528;BME280;47395;42.032;-8.634;2023-02-13T01:46:40;102113.75;;;10.29;56.22
61528;BME280;47395;42.032;-8.634;2023-02-13T01:48:42;102124.31;;;10.28;56.63
61528;BME280;47395;42.032;-8.634;2023-02-13T01:50:45;102120.97;;;10.21;55.74
61528;BME280;47395;42.032;-8.634;2023-02-13T01:52:49;102121.97;;;10.15;55.80
61528;BME280;47395;42.032;-8.634;2023-02-13T01:54:52;102122.75;;;10.19;56.00
61528;BME280;47395;42.032;-8.634;2023-02-13T01:56:54;102124.47;;;10.20;56.66
61528;BME280;47395;42.032;-8.634;2023-02-13T01:58:59;102124.47;;;10.20;56.73
61528;BME280;47395;42.032;-8.634;2023-02-13T02:01:01;102124.38;;;10.25;56.92
61528;BME280;47395;42.032;-8.634;2023-02-13T02:03:12;102131.34;;;10.27;56.99
61528;BME280;47395;42.032;-8.634;2023-02-13T02:05:15;102112.19;;;10.21;56.53
61528;BME280;47395;42.032;-8.634;2023-02-13T02:07:20;102121.81;;;10.22;56.01
61528;BME280;47395;42.032;-8.634;2023-02-13T02:09:25;102125.31;;;10.22;55.55
61528;BME280;47395;42.032;-8.634;2023-02-13T02:11:35;102124.34;;;10.26;57.26
61528;BME280;47395;42.032;-8.634;2023-02-13T02:13:39;102124.34;;;10.26;57.81
61528;BME280;47395;42.032;-8.634;2023-02-13T02:15:42;102126.91;;;10.29;57.03
61528;BME280;47395;42.032;-8.634;2023-02-13T02:17:43;102126.81;;;10.32;56.66
61528;BME280;47395;42.032;-8.634;2023-02-13T02:22:15;102124.81;;;10.44;56.95
61528;BME280;47395;42.032;-8.634;2023-02-13T02:24:28;102110.47;;;10.56;56.99
61528;BME280;47395;42.032;-8.634;2023-02-13T02:26:42;102119.03;;;10.64;56.74
61528;BME280;47395;42.032;-8.634;2023-02-13T02:33:59;102116.19;;;10.72;56.39
61528;BME280;47395;42.032;-8.634;2023-02-13T02:36:09;102119.25;;;10.88;56.31
61528;BME280;47395;42.032;-8.634;2023-02-13T02:42:42;102122.09;;;11.14;55.44
61528;BME280;47395;42.032;-8.634;2023-02-13T02:45:23;102131.63;;;11.18;55.09
61528;BME280;47395;42.032;-8.634;2023-02-13T02:49:39;102128.50;;;11.03;55.52
61528;BME280;47395;42.032;-8.634;2023-02-13T02:52:04;102130.72;;;10.87;55.80
61528;BME280;47395;42.032;-8.634;2023-02-13T02:56:34;102138.75;;;10.82;56.45
61528;BME280;47395;42.032;-8.634;2023-02-13T02:58:42;102126.47;;;10.81;56.90
61528;BME280;47395;42.032;-8.634;2023-02-13T03:01:06;102132.72;;;10.77;57.16
61528;BME280;47395;42.032;-8.634;2023-02-13T03:03:27;102116.88;;;10.79;57.08
61528;BME280;47395;42.032;-8.634;2023-02-13T03:05:50;102115.13;;;10.79;57.40
61528;BME280;47395;42.032;-8.634;2023-02-13T03:08:09;102116.03;;;10.78;56.71
61528;BME280;47395;42.032;-8.634;2023-02-13T03:10:12;102109.69;;;10.84;56.73
61528;BME280;47395;42.032;-8.634;2023-02-13T03:15:11;102115.50;;;10.97;55.86
61528;BME280;47395;42.032;-8.634;2023-02-13T03:17:13;102108.44;;;10.97;55.01
61528;BME280;47395;42.032;-8.634;2023-02-13T03:29:45;102104.28;;;10.90;56.02
61528;BME280;47395;42.032;-8.634;2023-02-13T03:32:19;102101.75;;;10.86;56.60
61528;BME280;47395;42.032;-8.634;2023-02-13T03:34:23;102107.44;;;10.72;57.38
61528;BME280;47395;42.032;-8.634;2023-02-13T03:36:39;102106.47;;;10.74;57.20
61528;BME280;47395;42.032;-8.634;2023-02-13T03:39:28;102110.84;;;10.75;56.94
61528;BME280;47395;42.032;-8.634;2023-02-13T03:41:29;102110.97;;;10.69;56.71
61528;BME280;47395;42.032;-8.634;2023-02-13T03:43:35;102105.06;;;10.61;56.77
61528;BME280;47395;42.032;-8.634;2023-02-13T03:45:40;102107.72;;;10.61;56.97
61528;BME280;47395;42.032;-8.634;2023-02-13T03:47:56;102102.47;;;10.59;57.31
61528;BME280;47395;42.032;-8.634;2023-02-13T03:49:58;102111.41;;;10.53;56.65
61528;BME280;47395;42.032;-8.634;2023-02-13T03:54:37;102106.06;;;10.56;56.92
61528;BME280;47395;42.032;-8.634;2023-02-13T03:57:00;102114.94;;;10.52;57.17
61528;BME280;47395;42.032;-8.634;2023-02-13T03:59:21;102115.75;;;10.54;57.28
61528;BME280;47395;42.032;-8.634;2023-02-13T04:01:24;102112.19;;;10.57;57.49
61528;BME280;47395;42.032;-8.634;2023-02-13T04:03:36;102112.06;;;10.62;57.28
61528;BME280;47395;42.032;-8.634;2023-02-13T04:05:42;102120.78;;;10.64;57.16
61528;BME280;47395;42.032;-8.634;2023-02-13T04:07:43;102126.06;;;10.64;57.46
61528;BME280;47395;42.032;-8.634;2023-02-13T04:09:44;102121.63;;;10.66;57.70
61528;BME280;47395;42.032;-8.634;2023-02-13T04:13:54;102119.00;;;10.66;56.86
61528;BME280;47395;42.032;-8.634;2023-02-13T04:16:05;102119.50;;;10.79;57.33
61528;BME280;47395;42.032;-8.634;2023-02-13T04:18:10;102113.25;;;10.83;56.61
61528;BME280;47395;42.032;-8.634;2023-02-13T04:20:12;102109.63;;;10.87;56.67
61528;BME280;47395;42.032;-8.634;2023-02-13T04:22:13;102113.94;;;10.90;56.22
61528;BME280;47395;42.032;-8.634;2023-02-13T04:24:14;102110.75;;;10.78;55.49
61528;BME280;47395;42.032;-8.634;2023-02-13T04:26:16;102114.94;;;10.86;55.23
61528;BME280;47395;42.032;-8.634;2023-02-13T04:28:17;102106.88;;;10.92;55.60
61528;BME280;47395;42.032;-8.634;2023-02-13T04:30:18;102104.97;;;10.97;55.37
61528;BME280;47395;42.032;-8.634;2023-02-13T04:32:20;102112.00;;;10.96;55.79
61528;BME280;47395;42.032;-8.634;2023-02-13T04:34:20;102107.56;;;10.99;55.63
61528;BME280;47395;42.032;-8.634;2023-02-13T04:36:21;102107.72;;;10.92;55.83
61528;BME280;47395;42.032;-8.634;2023-02-13T04:38:22;102109.66;;;10.86;55.53
61528;BME280;47395;42.032;-8.634;2023-02-13T04:40:22;102111.53;;;10.82;55.57
61528;BME280;47395;42.032;-8.634;2023-02-13T04:42:23;102109.72;;;10.82;55.68
61528;BME280;47395;42.032;-8.634;2023-02-13T04:44:24;102116.91;;;10.77;55.72
61528;BME280;47395;42.032;-8.634;2023-02-13T04:46:24;102111.63;;;10.77;55.80
61528;BME280;47395;42.032;-8.634;2023-02-13T04:48:25;102116.94;;;10.76;55.77
61528;BME280;47395;42.032;-8.634;2023-02-13T04:50:26;102123.94;;;10.78;56.03
61528;BME280;47395;42.032;-8.634;2023-02-13T04:52:27;102112.47;;;10.79;55.87
61528;BME280;47395;42.032;-8.634;2023-02-13T04:54:28;102116.81;;;10.82;56.01
61528;BME280;47395;42.032;-8.634;2023-02-13T04:56:28;102122.00;;;10.85;55.45
61528;BME280;47395;42.032;-8.634;2023-02-13T04:58:29;102118.25;;;10.92;55.85
61528;BME280;47395;42.032;-8.634;2023-02-13T05:00:30;102116.44;;;10.96;55.96
61528;BME280;47395;42.032;-8.634;2023-02-13T05:05:03;102119.59;;;11.07;55.96
61528;BME280;47395;42.032;-8.634;2023-02-13T05:07:04;102121.31;;;11.08;55.44
61528;BME280;47395;42.032;-8.634;2023-02-13T05:09:05;102120.47;;;11.08;54.76
61528;BME280;47395;42.032;-8.634;2023-02-13T05:11:05;102119.56;;;11.09;54.72
61528;BME280;47395;42.032;-8.634;2023-02-13T05:13:06;102117.84;;;11.08;54.91
61528;BME280;47395;42.032;-8.634;2023-02-13T05:15:07;102118.00;;;11.02;54.77
61528;BME280;47395;42.032;-8.634;2023-02-13T05:17:08;102122.31;;;11.04;54.77
61528;BME280;47395;42.032;-8.634;2023-02-13T05:19:09;102122.22;;;11.09;55.09
61528;BME280;47395;42.032;-8.634;2023-02-13T05:21:09;102123.00;;;11.11;55.21
61528;BME280;47395;42.032;-8.634;2023-02-13T05:23:29;102114.97;;;11.16;54.84
61528;BME280;47395;42.032;-8.634;2023-02-13T05:25:29;102118.25;;;11.24;54.31
61528;BME280;47395;42.032;-8.634;2023-02-13T05:27:30;102126.81;;;11.32;54.39
61528;BME280;47395;42.032;-8.634;2023-02-13T05:29:31;102117.22;;;11.30;54.27
61528;BME280;47395;42.032;-8.634;2023-02-13T05:31:31;102117.88;;;11.38;54.05
61528;BME280;47395;42.032;-8.634;2023-02-13T05:33:32;102116.44;;;11.26;54.57
61528;BME280;47395;42.032;-8.634;2023-02-13T05:35:33;102115.53;;;11.27;54.02
61528;BME280;47395;42.032;-8.634;2023-02-13T05:37:33;102121.34;;;11.39;54.44
61528;BME280;47395;42.032;-8.634;2023-02-13T05:39:34;102111.66;;;11.39;54.50
61528;BME280;47395;42.032;-8.634;2023-02-13T05:41:35;102116.00;;;11.42;53.52
61528;BME280;47395;42.032;-8.634;2023-02-13T05:43:35;102114.94;;;11.47;53.95
61528;BME280;47395;42.032;-8.634;2023-02-13T05:45:36;102118.09;;;11.59;53.73
61528;BME280;47395;42.032;-8.634;2023-02-13T05:47:36;102111.88;;;11.61;53.93
61528;BME280;47395;42.032;-8.634;2023-02-13T05:49:37;102111.75;;;11.36;53.86
61528;BME280;47395;42.032;-8.634;2023-02-13T05:51:38;102121.59;;;11.31;53.15
61528;BME280;47395;42.032;-8.634;2023-02-13T05:53:38;102120.44;;;11.40;53.85
61528;BME280;47395;42.032;-8.634;2023-02-13T05:55:39;102116.94;;;11.39;54.18
61528;BME280;47395;42.032;-8.634;2023-02-13T05:57:39;102113.44;;;11.39;54.39
61528;BME280;47395;42.032;-8.634;2023-02-13T05:59:40;102112.63;;;11.36;53.70
61528;BME280;47395;42.032;-8.634;2023-02-13T06:01:41;102116.31;;;11.31;53.83
61528;BME280;47395;42.032;-8.634;2023-02-13T06:03:41;102111.03;;;11.31;53.52
61528;BME280;47395;42.032;-8.634;2023-02-13T06:05:42;102109.44;;;11.25;53.82
61528;BME280;47395;42.032;-8.634;2023-02-13T06:07:43;102104.13;;;11.27;54.54
61528;BME280;47395;42.032;-8.634;2023-02-13T06:09:43;102104.84;;;11.32;55.09
61528;BME280;47395;42.032;-8.634;2023-02-13T06:11:44;102104.16;;;11.25;54.51
61528;BME280;47395;42.032;-8.634;2023-02-13T06:13:45;102108.31;;;11.34;54.82
61528;BME280;47395;42.032;-8.634;2023-02-13T06:15:45;102108.66;;;11.21;53.73
61528;BME280;47395;42.032;-8.634;2023-02-13T06:17:47;102104.16;;;11.25;54.24
61528;BME280;47395;42.032;-8.634;2023-02-13T06:19:47;102107.78;;;11.21;54.67
61528;BME280;47395;42.032;-8.634;2023-02-13T06:21:48;102106.75;;;11.27;55.26
61528;BME280;47395;42.032;-8.634;2023-02-13T06:23:48;102108.56;;;11.25;55.23
61528;BME280;47395;42.032;-8.634;2023-02-13T06:25:49;102112.72;;;11.33;55.62
61528;BME280;47395;42.032;-8.634;2023-02-13T06:27:50;102110.38;;;11.22;54.98
61528;BME280;47395;42.032;-8.634;2023-02-13T06:29:50;102107.84;;;11.19;55.35
61528;BME280;47395;42.032;-8.634;2023-02-13T06:31:51;102102.97;;;11.05;55.93
61528;BME280;47395;42.032;-8.634;2023-02-13T06:33:51;102098.50;;;11.07;55.72
61528;BME280;47395;42.032;-8.634;2023-02-13T06:35:52;102105.38;;;11.13;54.87
61528;BME280;47395;42.032;-8.634;2023-02-13T06:37:53;102102.09;;;11.05;55.04
61528;BME280;47395;42.032;-8.634;2023-02-13T06:39:53;102109.28;;;11.00;54.54
61528;BME280;47395;42.032;-8.634;2023-02-13T06:41:54;102116.16;;;11.05;54.64
61528;BME280;47395;42.032;-8.634;2023-02-13T06:43:55;102119.38;;;11.15;55.49
61528;BME280;47395;42.032;-8.634;2023-02-13T06:45:55;102114.19;;;11.14;55.10
61528;BME280;47395;42.032;-8.634;2023-02-13T06:47:56;102121.53;;;11.02;55.65
61528;BME280;47395;42.032;-8.634;2023-02-13T06:49:56;102119.44;;;11.14;55.74
61528;BME280;47395;42.032;-8.634;2023-02-13T06:51:57;102113.31;;;11.13;55.54
61528;BME280;47395;42.032;-8.634;2023-02-13T06:53:58;102118.53;;;11.15;54.76
61528;BME280;47395;42.032;-8.634;2023-02-13T06:56:01;102122.81;;;11.19;55.33
61528;BME280;47395;42.032;-8.634;2023-02-13T06:58:02;102125.34;;;11.22;55.36
61528;BME280;47395;42.032;-8.634;2023-02-13T07:00:03;102115.63;;;11.24;54.77
61528;BME280;47395;42.032;-8.634;2023-02-13T07:02:05;102123.59;;;11.22;55.07
61528;BME280;47395;42.032;-8.634;2023-02-13T07:04:05;102121.75;;;11.25;55.45
61528;BME280;47395;42.032;-8.634;2023-02-13T07:06:06;102120.91;;;11.24;55.26
61528;BME280;47395;42.032;-8.634;2023-02-13T07:08:08;102116.06;;;11.39;55.69
61528;BME280;47395;42.032;-8.634;2023-02-13T07:10:10;102122.94;;;11.44;55.06
61528;BME280;47395;42.032;-8.634;2023-02-13T07:12:11;102124.66;;;11.45;54.80
61528;BME280;47395;42.032;-8.634;2023-02-13T07:14:12;102122.91;;;11.46;54.73
61528;BME280;47395;42.032;-8.634;2023-02-13T07:16:13;102121.13;;;11.46;54.80
61528;BME280;47395;42.032;-8.634;2023-02-13T07:18:14;102128.28;;;11.43;55.14
61528;BME280;47395;42.032;-8.634;2023-02-13T07:20:15;102131.19;;;11.33;55.23
61528;BME280;47395;42.032;-8.634;2023-02-13T07:22:16;102132.78;;;11.39;54.89
61528;BME280;47395;42.032;-8.634;2023-02-13T07:24:17;102129.66;;;11.25;55.21
61528;BME280;47395;42.032;-8.634;2023-02-13T07:26:18;102141.09;;;11.25;54.76
61528;BME280;47395;42.032;-8.634;2023-02-13T07:28:18;102140.19;;;11.26;54.79
61528;BME280;47395;42.032;-8.634;2023-02-13T07:30:19;102136.66;;;11.27;55.17
61528;BME280;47395;42.032;-8.634;2023-02-13T07:32:20;102140.22;;;11.25;55.28
61528;BME280;47395;42.032;-8.634;2023-02-13T07:34:21;102139.09;;;11.33;56.08
61528;BME280;47395;42.032;-8.634;2023-02-13T07:36:21;102140.94;;;11.31;55.48
61528;BME280;47395;42.032;-8.634;2023-02-13T07:38:22;102141.53;;;11.40;55.33
61528;BME280;47395;42.032;-8.634;2023-02-13T07:40:23;102143.22;;;11.42;55.43
61528;BME280;47395;42.032;-8.634;2023-02-13T07:42:23;102143.91;;;11.49;55.61
61528;BME280;47395;42.032;-8.634;2023-02-13T07:44:24;102140.94;;;11.60;55.67
61528;BME280;47395;42.032;-8.634;2023-02-13T07:46:24;102149.63;;;11.65;55.75
61528;BME280;47395;42.032;-8.634;2023-02-13T07:48:25;102161.66;;;11.74;55.10
61528;BME280;47395;42.032;-8.634;2023-02-13T07:50:27;102154.50;;;11.78;54.98
61528;BME280;47395;42.032;-8.634;2023-02-13T07:52:27;102158.84;;;11.80;54.96
61528;BME280;47395;42.032;-8.634;2023-02-13T07:54:28;102155.28;;;11.81;55.24
61528;BME280;47395;42.032;-8.634;2023-02-13T07:56:29;102160.59;;;11.80;55.03
61528;BME280;47395;42.032;-8.634;2023-02-13T07:58:29;102158.59;;;11.88;55.40
61528;BME280;47395;42.032;-8.634;2023-02-13T08:00:30;102158.47;;;11.91;54.92
61528;BME280;47395;42.032;-8.634;2023-02-13T08:02:31;102158.66;;;11.86;55.07
61528;BME280;47395;42.032;-8.634;2023-02-13T08:04:31;102166.34;;;11.93;54.73
61528;BME280;47395;42.032;-8.634;2023-02-13T08:06:32;102163.63;;;11.96;54.54
61528;BME280;47395;42.032;-8.634;2023-02-13T08:08:33;102158.31;;;11.97;54.40
61528;BME280;47395;42.032;-8.634;2023-02-13T08:10:34;102170.63;;;11.97;54.40
61528;BME280;47395;42.032;-8.634;2023-02-13T08:12:53;102177.84;;;11.92;54.50
61528;BME280;47395;42.032;-8.634;2023-02-13T08:14:54;102174.19;;;11.96;54.94
61528;BME280;47395;42.032;-8.634;2023-02-13T08:16:57;102172.47;;;11.95;54.62
61528;BME280;47395;42.032;-8.634;2023-02-13T08:18:57;102169.84;;;11.95;54.59
61528;BME280;47395;42.032;-8.634;2023-02-13T08:20:58;102171.88;;;11.85;54.67
61528;BME280;47395;42.032;-8.634;2023-02-13T08:23:04;102180.31;;;11.98;54.24
61528;BME280;47395;42.032;-8.634;2023-02-13T08:25:05;102176.31;;;12.13;54.32
61528;BME280;47395;42.032;-8.634;2023-02-13T08:27:06;102181.34;;;12.22;54.07
61528;BME280;47395;42.032;-8.634;2023-02-13T08:29:08;102180.97;;;12.33;53.96
61528;BME280;47395;42.032;-8.634;2023-02-13T08:31:10;102182.59;;;12.37;54.01
61528;BME280;47395;42.032;-8.634;2023-02-13T08:33:11;102184.84;;;12.50;53.23
61528;BME280;47395;42.032;-8.634;2023-02-13T08:35:12;102182.88;;;12.55;53.64
61528;BME280;47395;42.032;-8.634;2023-02-13T08:37:13;102178.06;;;12.68;53.39
61528;BME280;47395;42.032;-8.634;2023-02-13T08:39:13;102186.97;;;12.65;53.01
61528;BME280;47395;42.032;-8.634;2023-02-13T08:41:17;102183.44;;;12.65;52.71
61528;BME280;47395;42.032;-8.634;2023-02-13T08:43:20;102186.97;;;12.65;52.67
61528;BME280;47395;42.032;-8.634;2023-02-13T08:45:20;102184.66;;;12.56;53.18
61528;BME280;47395;42.032;-8.634;2023-02-13T08:47:21;102184.31;;;12.65;52.95
61528;BME280;47395;42.032;-8.634;2023-02-13T08:49:22;102186.41;;;12.56;53.12
61528;BME280;47395;42.032;-8.634;2023-02-13T08:51:22;102192.34;;;12.62;53.34
61528;BME280;47395;42.032;-8.634;2023-02-13T08:53:24;102200.25;;;12.64;53.38
61528;BME280;47395;42.032;-8.634;2023-02-13T08:55:25;102197.31;;;12.72;53.83
61528;BME280;47395;42.032;-8.634;2023-02-13T08:57:26;102200.94;;;12.95;52.90
61528;BME280;47395;42.032;-8.634;2023-02-13T08:59:27;102195.47;;;13.01;52.65
61528;BME280;47395;42.032;-8.634;2023-02-13T09:01:27;102204.25;;;13.27;51.79
61528;BME280;47395;42.032;-8.634;2023-02-13T09:03:28;102205.25;;;13.48;51.81
61528;BME280;47395;42.032;-8.634;2023-02-13T09:05:29;102202.53;;;13.74;50.84
61528;BME280;47395;42.032;-8.634;2023-02-13T09:07:31;102204.78;;;14.72;49.12
61528;BME280;47395;42.032;-8.634;2023-02-13T09:09:31;102207.22;;;16.16;45.58
61528;BME280;47395;42.032;-8.634;2023-02-13T09:11:32;102212.78;;;17.52;41.55
61528;BME280;47395;42.032;-8.634;2023-02-13T09:13:33;102211.25;;;17.96;41.10
61528;BME280;47395;42.032;-8.634;2023-02-13T09:15:36;102212.81;;;17.68;40.98
61528;BME280;47395;42.032;-8.634;2023-02-13T09:17:37;102222.50;;;17.53;41.87
61528;BME280;47395;42.032;-8.634;2023-02-13T09:19:39;102216.78;;;17.27;42.80
61528;BME280;47395;42.032;-8.634;2023-02-13T09:21:39;102223.28;;;17.03;43.48
61528;BME280;47395;42.032;-8.634;2023-02-13T09:23:40;102228.78;;;17.00;42.98
61528;BME280;47395;42.032;-8.634;2023-02-13T09:25:40;102228.16;;;16.95;43.35
61528;BME280;47395;42.032;-8.634;2023-02-13T09:27:42;102230.66;;;16.45;44.51
61528;BME280;47395;42.032;-8.634;2023-02-13T09:29:42;102234.47;;;16.39;44.04
61528;BME280;47395;42.032;-8.634;2023-02-13T09:31:43;102237.50;;;16.31;45.39
61528;BME280;47395;42.032;-8.634;2023-02-13T09:33:44;102237.38;;;16.52;44.46
61528;BME280;47395;42.032;-8.634;2023-02-13T09:35:45;102234.72;;;16.52;45.00
61528;BME280;47395;42.032;-8.634;2023-02-13T09:37:45;102234.81;;;16.86;44.14
61528;BME280;47395;42.032;-8.634;2023-02-13T09:39:47;102221.06;;;17.29;43.48
61528;BME280;47395;42.032;-8.634;2023-02-13T09:41:48;102225.41;;;18.14;41.95
61528;BME280;47395;42.032;-8.634;2023-02-13T09:44:00;102227.38;;;18.57;40.81
61528;BME280;47395;42.032;-8.634;2023-02-13T09:46:21;102234.03;;;18.95;39.39
61528;BME280;47395;42.032;-8.634;2023-02-13T09:48:30;102237.53;;;19.26;38.55
61528;BME280;47395;42.032;-8.634;2023-02-13T09:50:35;102235.03;;;19.67;37.69
61528;BME280;47395;42.032;-8.634;2023-02-13T09:52:36;102231.00;;;19.74;38.54
61528;BME280;47395;42.032;-8.634;2023-02-13T09:54:38;102237.00;;;19.78;37.85
61528;BME280;47395;42.032;-8.634;2023-02-13T09:56:39;102236.66;;;19.55;37.83
61528;BME280;47395;42.032;-8.634;2023-02-13T09:58:51;102238.25;;;19.72;38.37
61528;BME280;47395;42.032;-8.634;2023-02-13T10:00:56;102238.00;;;19.48;38.08
61528;BME280;47395;42.032;-8.634;2023-02-13T10:03:06;102238.09;;;19.61;38.29
61528;BME280;47395;42.032;-8.634;2023-02-13T10:07:21;102234.66;;;20.15;37.62
61528;BME280;47395;42.032;-8.634;2023-02-13T10:16:46;102237.84;;;21.41;36.01
61528;BME280;47395;42.032;-8.634;2023-02-13T10:18:50;102230.53;;;21.56;35.04
61528;BME280;47395;42.032;-8.634;2023-02-13T10:20:53;102225.91;;;21.58;34.63
61528;BME280;47395;42.032;-8.634;2023-02-13T10:23:14;102245.72;;;20.64;35.30
61528;BME280;47395;42.032;-8.634;2023-02-13T10:25:26;102236.94;;;20.62;36.47
61528;BME280;47395;42.032;-8.634;2023-02-13T10:27:29;102240.75;;;20.98;36.58
61528;BME280;47395;42.032;-8.634;2023-02-13T10:29:35;102234.94;;;21.44;35.07
61528;BME280;47395;42.032;-8.634;2023-02-13T10:31:56;102233.28;;;22.29;33.60
61528;BME280;47395;42.032;-8.634;2023-02-13T10:34:01;102227.94;;;23.01;32.68
61528;BME280;47395;42.032;-8.634;2023-02-13T10:38:16;102239.38;;;24.38;29.88
61528;BME280;47395;42.032;-8.634;2023-02-13T10:40:17;102226.75;;;25.75;28.69
61528;BME280;47395;42.032;-8.634;2023-02-13T10:42:22;102232.66;;;26.40;28.23
61528;BME280;47395;42.032;-8.634;2023-02-13T10:46:51;102241.72;;;27.26;25.90
61528;BME280;47395;42.032;-8.634;2023-02-13T10:49:07;102237.03;;;28.02;25.42
61528;BME280;47395;42.032;-8.634;2023-02-13T10:51:14;102242.06;;;28.15;24.72
61528;BME280;47395;42.032;-8.634;2023-02-13T10:55:28;102245.63;;;28.79;24.60
61528;BME280;47395;42.032;-8.634;2023-02-13T11:04:32;102248.13;;;29.68;23.03
61528;BME280;47395;42.032;-8.634;2023-02-13T11:06:36;102255.66;;;30.00;22.66
61528;BME280;47395;42.032;-8.634;2023-02-13T11:08:43;102246.22;;;30.29;22.18
61528;BME280;47395;42.032;-8.634;2023-02-13T11:10:45;102252.56;;;31.11;21.91
61528;BME280;47395;42.032;-8.634;2023-02-13T11:12:46;102254.72;;;31.64;20.54
61528;BME280;47395;42.032;-8.634;2023-02-13T11:14:57;102253.94;;;31.78;21.07
61528;BME280;47395;42.032;-8.634;2023-02-13T11:17:02;102246.59;;;31.16;21.35
61528;BME280;47395;42.032;-8.634;2023-02-13T11:19:04;102250.28;;;31.31;20.95
61528;BME280;47395;42.032;-8.634;2023-02-13T11:21:09;102245.88;;;30.15;21.98
61528;BME280;47395;42.032;-8.634;2023-02-13T11:23:32;102246.88;;;30.14;22.65
61528;BME280;47395;42.032;-8.634;2023-02-13T11:25:34;102242.38;;;29.88;22.27
61528;BME280;47395;42.032;-8.634;2023-02-13T11:27:36;102243.94;;;29.99;22.85
61528;BME280;47395;42.032;-8.634;2023-02-13T11:30:01;102250.41;;;30.65;22.31
61528;BME280;47395;42.032;-8.634;2023-02-13T11:32:21;102242.09;;;31.71;21.56
61528;BME280;47395;42.032;-8.634;2023-02-13T11:34:27;102236.94;;;32.08;20.92
61528;BME280;47395;42.032;-8.634;2023-02-13T11:36:31;102240.19;;;32.95;20.26
61528;BME280;47395;42.032;-8.634;2023-02-13T11:38:31;102242.50;;;33.07;19.77
61528;BME280;47395;42.032;-8.634;2023-02-13T11:40:33;102241.94;;;33.49;19.31